createdAt,value
2019-05-15T00:00:10.022Z,65.10
2019-05-15T00:02:38.993Z,66.50
2019-05-15T00:05:09.068Z,67.80
2019-05-15T00:07:39.279Z,68.40
2019-05-15T00:10:08.753Z,68.70
2019-05-15T00:12:39.593Z,69.20
2019-05-15T00:15:09.327Z,69.60
2019-05-15T00:17:39.488Z,69.90
2019-05-15T00:20:10.057Z,70.40
2019-05-15T00:22:38.787Z,70.50
2019-05-15T00:25:09.279Z,70.50
2019-05-15T00:27:38.832Z,72.00
2019-05-15T00:30:09.572Z,73.10
2019-05-15T00:32:39.273Z,72.70
2019-05-15T00:35:09.326Z,74.00
2019-05-15T00:37:38.840Z,74.20
2019-05-15T00:40:08.772Z,74.60
2019-05-15T00:42:38.535Z,74.80
2019-05-15T00:45:09.427Z,73.90
2019-05-15T00:47:39.625Z,75.50
2019-05-15T00:50:09.209Z,75.80
2019-05-15T00:52:39.186Z,74.30
2019-05-15T00:55:08.788Z,74.70
2019-05-15T00:57:39.151Z,76.20
2019-05-15T01:00:08.636Z,77.50
2019-05-15T01:02:38.820Z,77.90
2019-05-15T01:05:08.245Z,77.90
2019-05-15T01:07:39.259Z,79.10
2019-05-15T01:10:09.860Z,77.50
2019-05-15T01:12:38.508Z,78.60
2019-05-15T01:15:09.313Z,80.80
2019-05-15T01:17:39.145Z,80.60
2019-05-15T01:20:08.612Z,81.60
2019-05-15T01:22:39.323Z,81.90
2019-05-15T01:25:08.587Z,81.10
2019-05-15T01:27:38.611Z,82.40
2019-05-15T01:30:09.200Z,81.30
2019-05-15T01:32:39.585Z,80.20
2019-05-15T01:35:09.542Z,81.90
2019-05-15T01:37:39.039Z,82.70
2019-05-15T01:40:08.819Z,81.90
2019-05-15T01:42:38.789Z,82.60
2019-05-15T01:45:08.588Z,82.60
2019-05-15T01:47:38.806Z,81.60
2019-05-15T01:50:09.193Z,83.90
2019-05-15T01:52:38.921Z,84.20
2019-05-15T01:55:09.065Z,83.60
2019-05-15T01:57:38.534Z,83.40
2019-05-15T02:00:08.983Z,83.60
2019-05-15T02:02:38.978Z,85.20
2019-05-15T02:05:08.743Z,84.60
2019-05-15T02:07:39.034Z,85.30
2019-05-15T02:10:09.155Z,85.50
2019-05-15T02:12:38.817Z,86.10
2019-05-15T02:15:08.756Z,86.90
2019-05-15T02:17:39.366Z,87.20
2019-05-15T02:20:08.466Z,87.60
2019-05-15T02:22:41.959Z,87.10
2019-05-15T02:25:08.619Z,87.20
2019-05-15T02:27:39.270Z,88.40
2019-05-15T02:30:22.319Z,88.70
2019-05-15T02:32:39.890Z,87.60
2019-05-15T02:35:10.102Z,87.00
2019-05-15T02:37:41.185Z,87.80
2019-05-15T02:40:10.302Z,88.20
2019-05-15T02:42:40.059Z,89.40
2019-05-15T02:45:10.077Z,90.20
2019-05-15T02:47:39.639Z,90.00
2019-05-15T02:50:10.717Z,89.20
2019-05-15T02:52:44.467Z,89.50
2019-05-15T02:55:09.994Z,89.10
2019-05-15T02:57:39.478Z,90.20
2019-05-15T03:00:10.779Z,90.20
2019-05-15T03:02:41.208Z,90.40
2019-05-15T03:05:09.819Z,90.40
2019-05-15T03:07:40.231Z,90.40
2019-05-15T03:10:09.589Z,90.60
2019-05-15T03:12:40.910Z,90.80
2019-05-15T03:15:09.620Z,91.00
2019-05-15T03:17:40.225Z,90.70
2019-05-15T03:20:10.345Z,91.00
2019-05-15T03:22:40.409Z,91.10
2019-05-15T03:25:11.187Z,91.10
2019-05-15T03:27:40.049Z,91.60
2019-05-15T03:30:13.771Z,91.70
2019-05-15T03:32:50.604Z,91.40
2019-05-15T03:35:14.680Z,91.50
2019-05-15T03:37:40.143Z,91.90
2019-05-15T03:40:10.296Z,92.20
2019-05-15T03:42:39.754Z,92.30
2019-05-15T03:45:10.149Z,92.20
2019-05-15T03:47:40.118Z,92.00
2019-05-15T03:50:10.362Z,92.10
2019-05-15T03:52:39.757Z,92.10
2019-05-15T03:55:10.758Z,92.00
2019-05-15T03:57:40.061Z,92.20
2019-05-15T04:00:09.701Z,92.10
2019-05-15T04:02:39.522Z,92.40
2019-05-15T04:05:11.802Z,92.50
2019-05-15T04:07:39.746Z,92.50
2019-05-15T04:10:10.059Z,92.40
2019-05-15T04:12:40.584Z,92.90
2019-05-15T04:15:10.586Z,93.30
2019-05-15T04:17:40.470Z,93.30
2019-05-15T04:20:10.035Z,93.10
2019-05-15T04:22:40.010Z,92.90
2019-05-15T04:25:09.923Z,92.60
2019-05-15T04:27:40.828Z,92.90
2019-05-15T04:30:10.636Z,93.20
2019-05-15T04:32:40.247Z,93.40
2019-05-15T04:35:10.328Z,92.60
2019-05-15T04:37:40.562Z,92.50
2019-05-15T04:40:10.021Z,92.70
2019-05-15T04:42:39.726Z,93.00
2019-05-15T04:45:10.073Z,93.00
2019-05-15T04:47:39.845Z,93.20
2019-05-15T04:50:09.522Z,93.40
2019-05-15T04:52:42.481Z,93.60
2019-05-15T04:55:10.069Z,94.00
2019-05-15T04:57:40.091Z,94.50
2019-05-15T05:00:10.040Z,94.30
2019-05-15T05:02:39.971Z,93.90
2019-05-15T05:05:10.537Z,93.30
2019-05-15T05:07:39.608Z,93.30
2019-05-15T05:10:09.667Z,93.60
2019-05-15T05:12:41.957Z,93.10
2019-05-15T05:15:09.301Z,92.60
2019-05-15T05:17:39.125Z,92.90
2019-05-15T05:20:08.386Z,93.10
2019-05-15T05:22:39.369Z,92.90
2019-05-15T05:25:08.088Z,92.30
2019-05-15T05:27:38.287Z,91.70
2019-05-15T05:30:08.386Z,91.50
2019-05-15T05:32:38.951Z,90.90
2019-05-15T05:35:08.435Z,87.60
2019-05-15T05:37:38.887Z,86.90
2019-05-15T05:40:08.811Z,85.00
2019-05-15T05:42:38.852Z,84.90
2019-05-15T05:45:09.274Z,84.30
2019-05-15T05:47:38.290Z,80.60
2019-05-15T05:50:08.064Z,79.00
2019-05-15T05:52:38.716Z,79.30
2019-05-15T05:55:08.768Z,80.60
2019-05-15T05:57:38.231Z,77.10
2019-05-15T06:00:09.359Z,77.10
2019-05-15T06:02:47.463Z,75.20
2019-05-15T06:05:08.354Z,72.80
2019-05-15T06:07:38.695Z,72.60
2019-05-15T06:10:08.918Z,71.50
2019-05-15T06:12:39.009Z,66.10
2019-05-15T06:15:08.900Z,63.60
2019-05-15T06:17:39.138Z,61.80
2019-05-15T06:20:08.166Z,59.40
2019-05-15T06:22:38.707Z,57.80
2019-05-15T06:25:10.705Z,57.10
2019-05-15T06:27:39.093Z,56.70
2019-05-15T06:30:08.859Z,56.20
2019-05-15T06:32:39.916Z,55.40
2019-05-15T06:35:08.881Z,53.30
2019-05-15T06:37:39.706Z,53.50
2019-05-15T06:40:08.472Z,53.90
2019-05-15T06:42:39.291Z,51.70
2019-05-15T06:45:08.263Z,50.80
2019-05-15T06:47:39.192Z,50.40
2019-05-15T06:50:08.573Z,49.90
2019-05-15T06:52:38.053Z,48.80
2019-05-15T06:55:09.158Z,49.50
2019-05-15T06:57:39.627Z,49.40
2019-05-15T07:00:08.529Z,49.30
2019-05-15T07:02:38.319Z,49.40
2019-05-15T07:05:08.576Z,49.60
2019-05-15T07:07:38.625Z,50.00
2019-05-15T07:10:09.105Z,48.90
2019-05-15T07:12:39.156Z,48.90
2019-05-15T07:15:09.092Z,49.10
2019-05-15T07:17:39.364Z,48.00
2019-05-15T07:20:10.093Z,47.50
2019-05-15T07:22:39.064Z,48.00
2019-05-15T07:25:08.999Z,47.60
2019-05-15T07:27:39.097Z,46.90
2019-05-15T07:30:11.700Z,47.10
2019-05-15T07:32:39.705Z,45.60
2019-05-15T07:35:09.255Z,45.70
2019-05-15T07:37:38.740Z,43.80
2019-05-15T07:40:08.992Z,44.10
2019-05-15T07:42:38.713Z,45.00
2019-05-15T07:45:09.496Z,43.40
2019-05-15T07:47:38.620Z,42.40
2019-05-15T07:50:09.903Z,42.50
2019-05-15T07:52:39.776Z,43.30
2019-05-15T07:55:09.650Z,43.40
2019-05-15T07:57:39.430Z,42.40
2019-05-15T08:00:10.931Z,41.40
2019-05-15T08:02:39.470Z,42.30
2019-05-15T08:05:10.089Z,41.10
2019-05-15T08:07:39.124Z,41.90
2019-05-15T08:10:09.416Z,41.30
2019-05-15T08:12:39.185Z,41.90
2019-05-15T08:15:10.604Z,41.20
2019-05-15T08:17:58.596Z,39.30
2019-05-15T08:20:11.481Z,41.10
2019-05-15T08:22:39.878Z,40.50
2019-05-15T08:25:13.116Z,40.30
2019-05-15T08:27:39.059Z,40.50
2019-05-15T08:30:09.053Z,38.40
2019-05-15T08:32:38.940Z,38.40
2019-05-15T08:35:08.760Z,38.70
2019-05-15T08:37:38.420Z,37.30
2019-05-15T08:40:08.576Z,38.50
2019-05-15T08:42:41.685Z,39.00
2019-05-15T08:45:09.206Z,38.30
2019-05-15T08:47:38.643Z,37.30
2019-05-15T08:50:09.483Z,36.50
2019-05-15T08:52:39.330Z,36.70
2019-05-15T08:55:08.721Z,36.20
2019-05-15T08:57:38.351Z,36.30
2019-05-15T09:00:09.968Z,36.80
2019-05-15T09:02:38.518Z,33.20
2019-05-15T09:05:08.699Z,32.90
2019-05-15T09:07:38.504Z,33.90
2019-05-15T09:10:10.413Z,35.20
2019-05-15T09:12:39.161Z,33.20
2019-05-15T09:15:10.343Z,33.40
2019-05-15T09:17:39.939Z,33.90
2019-05-15T09:20:09.958Z,33.00
2019-05-15T09:22:38.489Z,34.00
2019-05-15T09:25:09.076Z,34.50
2019-05-15T09:27:38.329Z,34.70
2019-05-15T09:30:08.735Z,32.80
2019-05-15T09:32:39.258Z,31.00
2019-05-15T09:35:08.968Z,31.30
2019-05-15T09:37:38.659Z,29.90
2019-05-15T09:40:09.184Z,31.90
2019-05-15T09:42:38.609Z,32.50
2019-05-15T09:45:09.556Z,30.90
2019-05-15T09:47:39.614Z,30.70
2019-05-15T09:50:09.695Z,30.50
2019-05-15T09:52:39.036Z,29.80
2019-05-15T09:55:09.469Z,28.90
2019-05-15T09:57:38.833Z,28.80
2019-05-15T10:00:09.703Z,28.80
2019-05-15T10:02:39.456Z,27.80
2019-05-15T10:05:11.101Z,27.50
2019-05-15T10:07:40.339Z,26.00
2019-05-15T10:10:09.699Z,26.80
2019-05-15T10:12:38.666Z,26.70
2019-05-15T10:15:11.191Z,26.90
2019-05-15T10:17:38.766Z,27.30
2019-05-15T10:20:09.141Z,27.00
2019-05-15T10:22:37.779Z,26.70
2019-05-15T10:25:08.340Z,26.00
2019-05-15T10:27:39.538Z,25.20
2019-05-15T10:30:09.212Z,25.30
2019-05-15T10:32:39.562Z,24.80
2019-05-15T10:35:24.090Z,26.30
2019-05-15T10:37:39.309Z,26.30
2019-05-15T10:40:09.225Z,26.10
2019-05-15T10:42:39.765Z,26.60
2019-05-15T10:45:09.752Z,26.50
2019-05-15T10:47:38.925Z,25.90
2019-05-15T10:50:08.108Z,25.80
2019-05-15T10:52:38.214Z,25.60
2019-05-15T10:55:09.889Z,26.30
2019-05-15T10:57:42.658Z,26.90
2019-05-15T11:00:09.164Z,25.70
2019-05-15T11:02:39.461Z,25.60
2019-05-15T11:05:12.256Z,25.70
2019-05-15T11:07:40.715Z,25.20
2019-05-15T11:10:09.565Z,25.00
2019-05-15T11:12:38.684Z,26.50
2019-05-15T11:15:11.425Z,25.20
2019-05-15T11:17:39.310Z,24.50
2019-05-15T11:20:08.453Z,25.60
2019-05-15T11:22:42.309Z,26.40
2019-05-15T11:25:09.894Z,26.60
2019-05-15T11:27:39.070Z,24.90
2019-05-15T11:30:09.387Z,23.70
2019-05-15T11:32:39.155Z,23.70
2019-05-15T11:35:08.424Z,24.50
2019-05-15T11:37:44.093Z,25.10
2019-05-15T11:40:10.308Z,24.80
2019-05-15T11:42:39.512Z,25.10
2019-05-15T11:45:09.457Z,25.80
2019-05-15T11:47:39.699Z,26.20
2019-05-15T11:50:08.728Z,26.90
2019-05-15T11:52:40.069Z,27.50
2019-05-15T11:55:08.303Z,27.40
2019-05-15T11:57:43.463Z,27.50
2019-05-15T12:00:15.046Z,28.10
2019-05-15T12:02:38.533Z,28.40
2019-05-15T12:05:09.238Z,26.70
2019-05-15T12:07:38.322Z,27.00
2019-05-15T12:10:10.425Z,28.40
2019-05-15T12:12:38.716Z,28.30
2019-05-15T12:15:08.086Z,29.70
2019-05-15T12:17:38.820Z,28.00
2019-05-15T12:20:10.509Z,27.50
2019-05-15T12:25:09.792Z,28.10
2019-05-15T12:27:40.048Z,28.60
2019-05-15T12:30:12.675Z,29.40
2019-05-15T12:32:41.087Z,30.50
2019-05-15T12:35:10.236Z,29.50
2019-05-15T12:37:40.034Z,28.90
2019-05-15T13:00:13.700Z,31.00
2019-05-15T13:02:42.111Z,31.50
2019-05-15T13:05:11.182Z,32.30
2019-05-15T13:07:39.579Z,31.20
2019-05-15T13:10:08.836Z,32.30
2019-05-15T13:12:47.571Z,32.10
2019-05-15T13:15:08.401Z,32.20
2019-05-15T13:17:38.888Z,31.90
2019-05-15T13:20:08.505Z,31.50
2019-05-15T13:22:39.260Z,32.90
2019-05-15T13:25:08.687Z,32.70
2019-05-15T13:27:38.202Z,32.20
2019-05-15T13:30:10.628Z,31.60
2019-05-15T13:32:41.134Z,30.80
2019-05-15T13:35:10.140Z,32.80
2019-05-15T13:37:39.100Z,32.90
2019-05-15T13:40:08.240Z,33.30
2019-05-15T13:42:38.787Z,32.90
2019-05-15T13:45:13.142Z,32.40
2019-05-15T13:47:38.945Z,31.90
2019-05-15T13:50:07.989Z,30.40
2019-05-15T13:52:39.040Z,31.40
2019-05-15T13:55:08.478Z,31.90
2019-05-15T13:57:38.270Z,32.80
2019-05-15T14:00:09.149Z,31.70
2019-05-15T14:02:38.697Z,31.60
2019-05-15T14:05:09.500Z,31.00
2019-05-15T14:07:48.989Z,29.90
2019-05-15T14:10:09.459Z,30.90
2019-05-15T14:12:38.409Z,31.40
2019-05-15T14:15:09.249Z,31.90
2019-05-15T14:17:38.018Z,30.80
2019-05-15T14:20:08.958Z,31.00
2019-05-15T14:22:39.022Z,30.50
2019-05-15T14:25:09.353Z,31.00
2019-05-15T14:27:39.657Z,30.20
2019-05-15T14:30:09.379Z,29.90
2019-05-15T14:32:39.380Z,30.20
2019-05-15T14:35:09.915Z,30.60
2019-05-15T14:37:38.386Z,30.70
2019-05-15T14:40:09.112Z,30.50
2019-05-15T14:42:39.611Z,30.20
2019-05-15T14:45:09.268Z,30.70
2019-05-15T14:47:38.998Z,30.50
2019-05-15T14:50:09.853Z,30.40
2019-05-15T14:52:38.680Z,31.60
2019-05-15T14:55:07.999Z,31.60
2019-05-15T14:57:39.231Z,32.20
2019-05-15T15:00:08.875Z,32.80
2019-05-15T15:02:38.995Z,31.70
2019-05-15T15:05:09.084Z,32.40
2019-05-15T15:07:38.328Z,31.60
2019-05-15T15:10:07.854Z,32.90
2019-05-15T15:12:39.173Z,33.10
2019-05-15T15:15:09.757Z,32.50
2019-05-15T15:17:38.691Z,32.60
2019-05-15T15:20:07.431Z,33.70
2019-05-15T15:22:35.834Z,32.70
2019-05-15T15:25:09.615Z,33.50
2019-05-15T15:27:38.948Z,33.30
2019-05-15T15:30:09.601Z,33.60
2019-05-15T15:32:38.631Z,33.30
2019-05-15T15:35:08.473Z,33.20
2019-05-15T15:37:38.117Z,33.00
2019-05-15T15:40:08.292Z,32.80
2019-05-15T15:42:39.300Z,34.60
2019-05-15T15:45:09.106Z,34.20
2019-05-15T15:47:38.914Z,34.30
2019-05-15T15:50:09.535Z,34.80
2019-05-15T15:52:38.783Z,35.50
2019-05-15T15:55:08.942Z,34.70
2019-05-15T15:57:39.713Z,34.90
2019-05-15T16:00:10.234Z,34.80
2019-05-15T16:02:40.976Z,35.20
2019-05-15T16:05:09.544Z,35.20
2019-05-15T16:07:38.226Z,35.10
2019-05-15T16:10:08.372Z,35.00
2019-05-15T16:12:38.867Z,35.70
2019-05-15T16:15:08.856Z,35.00
2019-05-15T16:17:38.525Z,36.50
2019-05-15T16:20:09.007Z,36.00
2019-05-15T16:22:38.178Z,36.20
2019-05-15T16:25:10.236Z,36.10
2019-05-15T16:27:38.717Z,35.80
2019-05-15T16:30:08.655Z,36.00
2019-05-15T16:32:39.021Z,36.20
2019-05-15T16:35:10.892Z,36.40
2019-05-15T16:37:39.415Z,36.10
2019-05-15T16:40:08.446Z,36.60
2019-05-15T16:42:38.612Z,37.00
2019-05-15T16:45:09.319Z,37.30
2019-05-15T16:47:38.821Z,37.30
2019-05-15T16:50:08.437Z,37.50
2019-05-15T16:52:38.861Z,37.30
2019-05-15T16:55:09.273Z,37.80
2019-05-15T16:57:38.827Z,37.60
2019-05-15T17:00:09.531Z,37.70
2019-05-15T17:02:39.178Z,37.80
2019-05-15T17:05:08.395Z,37.60
2019-05-15T17:07:38.775Z,37.00
2019-05-15T17:10:08.389Z,37.40
2019-05-15T17:12:38.863Z,37.50
2019-05-15T17:15:09.450Z,37.80
2019-05-15T17:17:38.692Z,38.20
2019-05-15T17:20:10.042Z,37.30
2019-05-15T17:22:38.876Z,37.10
2019-05-15T17:25:09.221Z,36.70
2019-05-15T17:27:38.050Z,37.20
2019-05-15T17:30:09.445Z,36.90
2019-05-15T17:32:38.929Z,36.80
2019-05-15T17:35:09.871Z,37.10
2019-05-15T17:37:38.560Z,37.40
2019-05-15T17:40:07.511Z,37.30
2019-05-15T17:42:38.558Z,35.70
2019-05-15T17:45:08.997Z,35.70
2019-05-15T17:47:38.848Z,35.60
2019-05-15T17:50:08.555Z,36.50
2019-05-15T17:52:38.781Z,36.10
2019-05-15T17:55:07.572Z,36.40
2019-05-15T17:57:38.535Z,36.40
2019-05-15T18:00:11.604Z,36.80
2019-05-15T18:02:38.211Z,36.30
2019-05-15T18:05:07.831Z,35.30
2019-05-15T18:07:38.713Z,35.40
2019-05-15T18:10:08.444Z,35.40
2019-05-15T18:12:38.894Z,35.50
2019-05-15T18:15:09.074Z,35.80
2019-05-15T18:17:39.292Z,35.30
2019-05-15T18:20:09.850Z,34.70
2019-05-15T18:22:38.722Z,34.50
2019-05-15T18:25:10.215Z,34.40
2019-05-15T18:27:39.091Z,33.40
2019-05-15T18:30:09.309Z,33.50
2019-05-15T18:32:39.164Z,33.20
2019-05-15T18:35:08.439Z,33.30
2019-05-15T18:37:39.342Z,33.80
2019-05-15T18:40:09.899Z,33.90
2019-05-15T18:42:38.941Z,34.80
2019-05-15T18:45:09.654Z,34.60
2019-05-15T18:47:38.976Z,33.80
2019-05-15T18:50:12.700Z,34.00
2019-05-15T18:52:38.421Z,34.50
2019-05-15T18:55:08.820Z,34.20
2019-05-15T18:57:39.979Z,34.00
2019-05-15T19:00:10.187Z,33.90
2019-05-15T19:02:42.136Z,34.10
2019-05-15T19:05:11.130Z,34.70
2019-05-15T19:07:42.433Z,34.50
2019-05-15T19:10:12.650Z,34.10
2019-05-15T19:12:41.045Z,34.30
2019-05-15T19:15:09.898Z,35.10
2019-05-15T19:17:38.963Z,35.30
2019-05-15T19:20:08.905Z,35.50
2019-05-15T19:22:40.441Z,35.30
2019-05-15T19:25:09.809Z,35.10
2019-05-15T19:27:39.289Z,35.70
2019-05-15T19:30:13.118Z,35.40
2019-05-15T19:32:41.514Z,35.60
2019-05-15T19:35:12.292Z,35.40
2019-05-15T19:37:40.239Z,36.40
2019-05-15T19:40:09.490Z,35.90
2019-05-15T19:42:38.517Z,36.70
2019-05-15T19:45:08.671Z,37.00
2019-05-15T19:47:38.866Z,37.50
2019-05-15T19:50:08.485Z,37.40
2019-05-15T19:52:37.031Z,37.70
2019-05-15T19:55:08.605Z,38.00
2019-05-15T19:57:38.722Z,37.60
2019-05-15T20:00:08.655Z,37.60
2019-05-15T20:02:38.056Z,37.70
2019-05-15T20:05:09.256Z,38.30
2019-05-15T20:07:39.024Z,38.10
2019-05-15T20:10:09.472Z,38.40
2019-05-15T20:12:38.825Z,39.20
2019-05-15T20:15:09.147Z,39.30
2019-05-15T20:17:38.633Z,39.30
2019-05-15T20:20:08.921Z,39.40
2019-05-15T20:22:40.182Z,39.40
2019-05-15T20:25:12.607Z,39.90
2019-05-15T20:27:40.998Z,39.90
2019-05-15T20:30:09.942Z,40.60
2019-05-15T20:32:38.901Z,40.80
2019-05-15T20:35:09.288Z,40.90
2019-05-15T20:37:39.004Z,41.10
2019-05-15T20:40:09.471Z,41.40
2019-05-15T20:42:38.602Z,41.10
2019-05-15T20:45:12.162Z,41.20
2019-05-15T20:47:39.138Z,41.80
2019-05-15T20:50:08.911Z,42.10
2019-05-15T20:52:39.390Z,41.90
2019-05-15T20:55:08.976Z,42.20
2019-05-15T20:57:40.252Z,42.10
2019-05-15T21:00:09.063Z,42.70
2019-05-15T21:02:38.000Z,42.20
2019-05-15T21:05:08.754Z,42.30
2019-05-15T21:07:42.161Z,42.30
2019-05-15T21:10:09.454Z,42.50
2019-05-15T21:12:41.121Z,42.50
2019-05-15T21:15:09.320Z,42.50
2019-05-15T21:17:40.249Z,42.60
2019-05-15T21:20:09.443Z,42.70
2019-05-15T21:22:40.453Z,42.20
2019-05-15T21:25:10.896Z,42.40
2019-05-15T21:27:42.698Z,42.20
2019-05-15T21:30:10.365Z,42.60
2019-05-15T21:32:38.839Z,42.90
2019-05-15T21:35:09.058Z,42.70
2019-05-15T21:37:38.975Z,43.10
2019-05-15T21:40:09.116Z,43.50
2019-05-15T21:42:39.133Z,43.60
2019-05-15T21:45:14.150Z,43.60
2019-05-15T21:47:39.876Z,44.30
2019-05-15T21:50:08.816Z,44.60
2019-05-15T21:52:39.053Z,45.50
2019-05-15T21:55:09.524Z,44.80
2019-05-15T21:57:40.218Z,44.80
2019-05-15T22:00:11.580Z,45.30
2019-05-15T22:02:39.970Z,45.80
2019-05-15T22:05:08.864Z,45.80
2019-05-15T22:07:38.819Z,45.40
2019-05-15T22:10:10.365Z,45.40
2019-05-15T22:12:37.990Z,46.10
2019-05-15T22:15:09.467Z,46.40
2019-05-15T22:17:39.027Z,46.80
2019-05-15T22:20:08.725Z,46.70
2019-05-15T22:22:37.436Z,47.10
2019-05-15T22:25:10.773Z,47.10
2019-05-15T22:27:38.283Z,47.00
2019-05-15T22:30:08.616Z,47.10
2019-05-15T22:32:41.270Z,47.40
2019-05-15T22:35:13.624Z,48.00
2019-05-15T22:37:41.575Z,48.10
2019-05-15T22:40:10.799Z,48.70
2019-05-15T22:42:39.307Z,48.60
2019-05-15T22:45:11.557Z,48.90
2019-05-15T22:47:39.148Z,49.10
2019-05-15T22:50:08.391Z,48.90
2019-05-15T22:52:38.847Z,49.30
2019-05-15T22:55:07.477Z,49.20
2019-05-15T22:57:35.875Z,49.30
2019-05-15T23:00:08.484Z,50.20
2019-05-15T23:02:36.693Z,50.20
2019-05-15T23:05:20.962Z,50.10
2019-05-15T23:07:38.716Z,50.30
2019-05-15T23:10:08.932Z,50.30
2019-05-15T23:12:38.233Z,50.40
2019-05-15T23:15:08.636Z,50.70
2019-05-15T23:17:38.384Z,50.50
2019-05-15T23:20:08.881Z,50.20
2019-05-15T23:22:38.598Z,50.50
2019-05-15T23:25:07.643Z,50.40
2019-05-15T23:27:38.081Z,50.50
2019-05-15T23:30:08.709Z,50.60
2019-05-15T23:32:39.153Z,50.70
2019-05-15T23:35:06.976Z,51.20
2019-05-15T23:37:35.374Z,51.40
2019-05-15T23:40:08.816Z,51.60
2019-05-15T23:42:39.036Z,51.80
2019-05-15T23:45:08.088Z,51.90
2019-05-15T23:47:38.417Z,52.20
2019-05-15T23:50:07.315Z,52.70
2019-05-15T23:52:38.285Z,53.20
2019-05-15T23:55:08.668Z,53.30
2019-05-15T23:57:39.181Z,53.20
